sensor_id;sensor_type;location;lat;lon;timestamp;temperature;humidity
51567;DHT22;37657;53.182;5.638;2022-08-14T00:02:22;21.00;99.90
51567;DHT22;37657;53.182;5.638;2022-08-14T00:04:48;20.90;99.90
51567;DHT22;37657;53.182;5.638;2022-08-14T00:07:13;20.90;99.90
51567;DHT22;37657;53.182;5.638;2022-08-14T00:09:39;20.70;99.90
51567;DHT22;37657;53.182;5.638;2022-08-14T00:12:05;20.80;99.90
51567;DHT22;37657;53.182;5.638;2022-08-14T00:14:31;20.80;99.90
51567;DHT22;37657;53.182;5.638;2022-08-14T00:16:56;20.70;99.90
51567;DHT22;37657;53.182;5.638;2022-08-14T00:19:23;20.70;99.90
51567;DHT22;37657;53.182;5.638;2022-08-14T00:21:51;20.70;99.90
51567;DHT22;37657;53.182;5.638;2022-08-14T00:24:20;20.70;99.90
51567;DHT22;37657;53.182;5.638;2022-08-14T00:26:47;20.70;99.90
51567;DHT22;37657;53.182;5.638;2022-08-14T00:29:13;20.70;99.90
51567;DHT22;37657;53.182;5.638;2022-08-14T00:31:39;20.70;99.90
51567;DHT22;37657;53.182;5.638;2022-08-14T00:34:04;20.60;99.90
51567;DHT22;37657;53.182;5.638;2022-08-14T00:36:30;20.60;99.90
51567;DHT22;37657;53.182;5.638;2022-08-14T00:38:56;20.60;99.90
51567;DHT22;37657;53.182;5.638;2022-08-14T00:41:21;20.60;99.90
51567;DHT22;37657;53.182;5.638;2022-08-14T00:43:47;20.60;99.90
51567;DHT22;37657;53.182;5.638;2022-08-14T00:46:13;20.60;99.90
51567;DHT22;37657;53.182;5.638;2022-08-14T00:48:38;20.50;99.90
51567;DHT22;37657;53.182;5.638;2022-08-14T00:51:07;20.50;99.90
51567;DHT22;37657;53.182;5.638;2022-08-14T00:53:34;20.50;99.90
51567;DHT22;37657;53.182;5.638;2022-08-14T00:56:02;20.50;99.90
51567;DHT22;37657;53.182;5.638;2022-08-14T00:58:28;20.40;99.90
51567;DHT22;37657;53.182;5.638;2022-08-14T01:01:09;20.40;99.90
51567;DHT22;37657;53.182;5.638;2022-08-14T01:03:38;20.30;99.90
51567;DHT22;37657;53.182;5.638;2022-08-14T01:06:06;20.30;99.90
51567;DHT22;37657;53.182;5.638;2022-08-14T01:08:34;20.30;99.90
51567;DHT22;37657;53.182;5.638;2022-08-14T01:11:00;20.20;99.90
51567;DHT22;37657;53.182;5.638;2022-08-14T01:13:27;20.20;99.90
51567;DHT22;37657;53.182;5.638;2022-08-14T01:15:55;20.20;99.90
51567;DHT22;37657;53.182;5.638;2022-08-14T01:18:26;20.20;99.90
51567;DHT22;37657;53.182;5.638;2022-08-14T01:21:12;20.20;99.90
51567;DHT22;37657;53.182;5.638;2022-08-14T01:23:49;20.10;99.90
51567;DHT22;37657;53.182;5.638;2022-08-14T01:26:18;20.10;99.90
51567;DHT22;37657;53.182;5.638;2022-08-14T01:28:49;20.00;99.90
51567;DHT22;37657;53.182;5.638;2022-08-14T01:31:17;20.00;99.90
51567;DHT22;37657;53.182;5.638;2022-08-14T01:33:46;19.90;99.90
51567;DHT22;37657;53.182;5.638;2022-08-14T01:36:13;19.90;99.90
51567;DHT22;37657;53.182;5.638;2022-08-14T01:38:43;19.80;99.90
51567;DHT22;37657;53.182;5.638;2022-08-14T01:41:12;19.80;99.90
51567;DHT22;37657;53.182;5.638;2022-08-14T01:43:53;19.80;99.90
51567;DHT22;37657;53.182;5.638;2022-08-14T01:46:21;19.70;99.90
51567;DHT22;37657;53.182;5.638;2022-08-14T01:48:47;19.60;99.90
51567;DHT22;37657;53.182;5.638;2022-08-14T01:51:16;19.60;99.90
51567;DHT22;37657;53.182;5.638;2022-08-14T01:53:46;19.50;99.90
51567;DHT22;37657;53.182;5.638;2022-08-14T01:56:15;19.50;99.90
51567;DHT22;37657;53.182;5.638;2022-08-14T01:58:45;19.40;99.90
51567;DHT22;37657;53.182;5.638;2022-08-14T02:01:15;19.40;99.90
51567;DHT22;37657;53.182;5.638;2022-08-14T02:03:41;19.40;99.90
51567;DHT22;37657;53.182;5.638;2022-08-14T02:06:07;19.40;99.90
51567;DHT22;37657;53.182;5.638;2022-08-14T02:08:32;19.30;99.90
51567;DHT22;37657;53.182;5.638;2022-08-14T02:11:03;19.30;99.90
51567;DHT22;37657;53.182;5.638;2022-08-14T02:13:42;19.30;99.90
51567;DHT22;37657;53.182;5.638;2022-08-14T02:16:13;19.30;99.90
51567;DHT22;37657;53.182;5.638;2022-08-14T02:18:41;19.20;99.90
51567;DHT22;37657;53.182;5.638;2022-08-14T02:21:08;19.20;99.90
51567;DHT22;37657;53.182;5.638;2022-08-14T02:23:34;19.20;99.90
51567;DHT22;37657;53.182;5.638;2022-08-14T02:26:02;19.20;99.90
51567;DHT22;37657;53.182;5.638;2022-08-14T02:28:40;19.20;99.90
51567;DHT22;37657;53.182;5.638;2022-08-14T02:31:06;19.20;99.90
51567;DHT22;37657;53.182;5.638;2022-08-14T02:33:33;19.20;99.90
51567;DHT22;37657;53.182;5.638;2022-08-14T02:36:00;19.20;99.90
51567;DHT22;37657;53.182;5.638;2022-08-14T02:38:28;19.20;99.90
51567;DHT22;37657;53.182;5.638;2022-08-14T02:40:55;19.20;99.90
51567;DHT22;37657;53.182;5.638;2022-08-14T02:43:22;19.20;99.90
51567;DHT22;37657;53.182;5.638;2022-08-14T02:45:47;19.20;99.90
51567;DHT22;37657;53.182;5.638;2022-08-14T02:48:13;19.20;99.90
51567;DHT22;37657;53.182;5.638;2022-08-14T02:50:39;19.20;99.90
51567;DHT22;37657;53.182;5.638;2022-08-14T02:53:08;19.20;99.90
51567;DHT22;37657;53.182;5.638;2022-08-14T02:55:35;19.20;99.90
51567;DHT22;37657;53.182;5.638;2022-08-14T02:58:05;19.20;99.90
51567;DHT22;37657;53.182;5.638;2022-08-14T03:00:34;19.20;99.90
51567;DHT22;37657;53.182;5.638;2022-08-14T03:03:03;19.20;99.90
51567;DHT22;37657;53.182;5.638;2022-08-14T03:05:29;19.20;99.90
51567;DHT22;37657;53.182;5.638;2022-08-14T03:08:06;19.20;99.90
51567;DHT22;37657;53.182;5.638;2022-08-14T03:10:32;19.10;99.90
51567;DHT22;37657;53.182;5.638;2022-08-14T03:12:57;19.10;99.90
51567;DHT22;37657;53.182;5.638;2022-08-14T03:15:23;19.10;99.90
51567;DHT22;37657;53.182;5.638;2022-08-14T03:17:49;19.10;99.90
51567;DHT22;37657;53.182;5.638;2022-08-14T03:20:17;19.10;99.90
51567;DHT22;37657;53.182;5.638;2022-08-14T03:22:43;19.00;99.90
51567;DHT22;37657;53.182;5.638;2022-08-14T03:25:08;19.00;99.90
51567;DHT22;37657;53.182;5.638;2022-08-14T03:27:37;19.00;99.90
51567;DHT22;37657;53.182;5.638;2022-08-14T03:30:03;19.00;99.90
51567;DHT22;37657;53.182;5.638;2022-08-14T03:32:29;19.10;99.90
51567;DHT22;37657;53.182;5.638;2022-08-14T03:34:58;19.10;99.90
51567;DHT22;37657;53.182;5.638;2022-08-14T03:37:24;19.10;99.90
51567;DHT22;37657;53.182;5.638;2022-08-14T03:39:52;19.10;99.90
51567;DHT22;37657;53.182;5.638;2022-08-14T03:42:18;19.20;99.90
51567;DHT22;37657;53.182;5.638;2022-08-14T03:44:43;19.20;99.90
51567;DHT22;37657;53.182;5.638;2022-08-14T03:47:10;19.20;99.90
51567;DHT22;37657;53.182;5.638;2022-08-14T03:49:36;19.20;99.90
51567;DHT22;37657;53.182;5.638;2022-08-14T03:52:03;19.20;99.90
51567;DHT22;37657;53.182;5.638;2022-08-14T03:54:29;19.20;99.90
51567;DHT22;37657;53.182;5.638;2022-08-14T03:56:56;19.20;99.90
51567;DHT22;37657;53.182;5.638;2022-08-14T03:59:25;19.10;99.90
51567;DHT22;37657;53.182;5.638;2022-08-14T04:01:50;19.10;99.90
51567;DHT22;37657;53.182;5.638;2022-08-14T04:04:17;19.10;99.90
51567;DHT22;37657;53.182;5.638;2022-08-14T04:06:43;19.00;99.90
51567;DHT22;37657;53.182;5.638;2022-08-14T04:09:08;19.00;99.90
51567;DHT22;37657;53.182;5.638;2022-08-14T04:11:35;19.00;99.90
51567;DHT22;37657;53.182;5.638;2022-08-14T04:14:02;18.90;99.90
51567;DHT22;37657;53.182;5.638;2022-08-14T04:16:28;18.90;99.90
51567;DHT22;37657;53.182;5.638;2022-08-14T04:18:55;18.90;99.90
51567;DHT22;37657;53.182;5.638;2022-08-14T04:21:23;18.80;99.90
51567;DHT22;37657;53.182;5.638;2022-08-14T04:23:51;18.80;99.90
51567;DHT22;37657;53.182;5.638;2022-08-14T04:26:17;18.80;99.90
51567;DHT22;37657;53.182;5.638;2022-08-14T04:28:47;18.80;99.90
51567;DHT22;37657;53.182;5.638;2022-08-14T04:31:14;18.70;99.90
51567;DHT22;37657;53.182;5.638;2022-08-14T04:33:40;18.80;99.90
51567;DHT22;37657;53.182;5.638;2022-08-14T04:36:06;18.70;99.90
51567;DHT22;37657;53.182;5.638;2022-08-14T04:38:31;18.70;99.90
51567;DHT22;37657;53.182;5.638;2022-08-14T04:41:15;18.70;99.90
51567;DHT22;37657;53.182;5.638;2022-08-14T04:43:59;18.70;99.90
51567;DHT22;37657;53.182;5.638;2022-08-14T04:46:25;18.70;99.90
51567;DHT22;37657;53.182;5.638;2022-08-14T04:48:52;18.70;99.90
51567;DHT22;37657;53.182;5.638;2022-08-14T04:51:20;18.80;99.90
51567;DHT22;37657;53.182;5.638;2022-08-14T04:53:51;18.80;99.90
51567;DHT22;37657;53.182;5.638;2022-08-14T04:56:19;18.90;99.90
51567;DHT22;37657;53.182;5.638;2022-08-14T04:58:50;19.00;99.90
51567;DHT22;37657;53.182;5.638;2022-08-14T05:01:22;19.00;99.90
51567;DHT22;37657;53.182;5.638;2022-08-14T05:03:48;19.10;99.90
51567;DHT22;37657;53.182;5.638;2022-08-14T05:06:16;19.20;99.90
51567;DHT22;37657;53.182;5.638;2022-08-14T05:08:41;19.30;99.90
51567;DHT22;37657;53.182;5.638;2022-08-14T05:11:08;19.30;99.90
51567;DHT22;37657;53.182;5.638;2022-08-14T05:13:35;19.40;99.90
51567;DHT22;37657;53.182;5.638;2022-08-14T05:16:01;19.50;99.90
51567;DHT22;37657;53.182;5.638;2022-08-14T05:18:35;19.60;99.90
51567;DHT22;37657;53.182;5.638;2022-08-14T05:21:05;19.80;99.90
51567;DHT22;37657;53.182;5.638;2022-08-14T05:23:33;20.00;99.90
51567;DHT22;37657;53.182;5.638;2022-08-14T05:26:01;20.20;99.90
51567;DHT22;37657;53.182;5.638;2022-08-14T05:28:31;20.40;99.90
51567;DHT22;37657;53.182;5.638;2022-08-14T05:31:00;20.50;99.90
51567;DHT22;37657;53.182;5.638;2022-08-14T05:33:27;20.60;99.90
51567;DHT22;37657;53.182;5.638;2022-08-14T05:35:56;20.70;99.90
51567;DHT22;37657;53.182;5.638;2022-08-14T05:38:32;20.80;99.90
51567;DHT22;37657;53.182;5.638;2022-08-14T05:41:18;20.90;99.90
51567;DHT22;37657;53.182;5.638;2022-08-14T05:43:45;21.00;99.90
51567;DHT22;37657;53.182;5.638;2022-08-14T05:46:14;21.10;99.90
51567;DHT22;37657;53.182;5.638;2022-08-14T05:48:50;21.20;99.90
51567;DHT22;37657;53.182;5.638;2022-08-14T05:51:18;21.20;99.90
51567;DHT22;37657;53.182;5.638;2022-08-14T05:53:44;21.30;99.90
51567;DHT22;37657;53.182;5.638;2022-08-14T05:56:09;21.30;99.90
51567;DHT22;37657;53.182;5.638;2022-08-14T05:58:35;21.40;99.90
51567;DHT22;37657;53.182;5.638;2022-08-14T06:01:01;21.40;99.90
51567;DHT22;37657;53.182;5.638;2022-08-14T06:03:26;21.50;99.90
51567;DHT22;37657;53.182;5.638;2022-08-14T06:05:53;21.60;99.90
51567;DHT22;37657;53.182;5.638;2022-08-14T06:08:25;21.60;99.90
51567;DHT22;37657;53.182;5.638;2022-08-14T06:10:53;21.70;99.90
51567;DHT22;37657;53.182;5.638;2022-08-14T06:13:20;21.70;99.90
51567;DHT22;37657;53.182;5.638;2022-08-14T06:15:46;21.80;99.90
51567;DHT22;37657;53.182;5.638;2022-08-14T06:18:14;21.90;99.90
51567;DHT22;37657;53.182;5.638;2022-08-14T06:20:40;21.90;99.90
51567;DHT22;37657;53.182;5.638;2022-08-14T06:23:06;22.00;99.90
51567;DHT22;37657;53.182;5.638;2022-08-14T06:25:32;22.00;99.90
51567;DHT22;37657;53.182;5.638;2022-08-14T06:27:57;22.10;99.90
51567;DHT22;37657;53.182;5.638;2022-08-14T06:30:27;22.20;99.90
51567;DHT22;37657;53.182;5.638;2022-08-14T06:32:53;22.20;99.90
51567;DHT22;37657;53.182;5.638;2022-08-14T06:35:18;22.30;99.90
51567;DHT22;37657;53.182;5.638;2022-08-14T06:40:19;22.40;99.90
51567;DHT22;37657;53.182;5.638;2022-08-14T06:42:45;22.40;99.90
51567;DHT22;37657;53.182;5.638;2022-08-14T06:45:11;22.50;99.90
51567;DHT22;37657;53.182;5.638;2022-08-14T06:47:39;22.50;99.90
51567;DHT22;37657;53.182;5.638;2022-08-14T06:50:07;22.60;99.90
51567;DHT22;37657;53.182;5.638;2022-08-14T06:52:33;22.70;99.90
51567;DHT22;37657;53.182;5.638;2022-08-14T06:54:59;22.70;99.90
51567;DHT22;37657;53.182;5.638;2022-08-14T06:57:32;22.80;99.90
51567;DHT22;37657;53.182;5.638;2022-08-14T06:59:59;22.80;99.90
51567;DHT22;37657;53.182;5.638;2022-08-14T07:02:24;22.90;99.90
51567;DHT22;37657;53.182;5.638;2022-08-14T07:05:09;22.90;99.90
51567;DHT22;37657;53.182;5.638;2022-08-14T07:07:53;23.00;99.90
51567;DHT22;37657;53.182;5.638;2022-08-14T07:10:19;23.10;99.90
51567;DHT22;37657;53.182;5.638;2022-08-14T07:12:46;23.10;99.90
51567;DHT22;37657;53.182;5.638;2022-08-14T07:15:12;23.20;99.90
51567;DHT22;37657;53.182;5.638;2022-08-14T07:17:46;23.20;99.90
51567;DHT22;37657;53.182;5.638;2022-08-14T07:20:11;23.30;99.90
51567;DHT22;37657;53.182;5.638;2022-08-14T07:22:37;23.30;99.90
51567;DHT22;37657;53.182;5.638;2022-08-14T07:25:03;23.40;99.90
51567;DHT22;37657;53.182;5.638;2022-08-14T07:27:29;23.40;99.90
51567;DHT22;37657;53.182;5.638;2022-08-14T07:29:55;23.50;99.90
51567;DHT22;37657;53.182;5.638;2022-08-14T07:32:21;23.50;99.90
51567;DHT22;37657;53.182;5.638;2022-08-14T07:34:47;23.60;99.90
51567;DHT22;37657;53.182;5.638;2022-08-14T07:37:13;23.60;99.90
51567;DHT22;37657;53.182;5.638;2022-08-14T07:39:38;23.70;99.90
51567;DHT22;37657;53.182;5.638;2022-08-14T07:42:04;23.80;99.90
51567;DHT22;37657;53.182;5.638;2022-08-14T07:44:30;23.80;99.90
51567;DHT22;37657;53.182;5.638;2022-08-14T07:46:56;23.80;99.90
51567;DHT22;37657;53.182;5.638;2022-08-14T07:49:21;23.90;99.90
51567;DHT22;37657;53.182;5.638;2022-08-14T07:51:47;24.00;99.90
51567;DHT22;37657;53.182;5.638;2022-08-14T07:54:12;24.00;99.90
51567;DHT22;37657;53.182;5.638;2022-08-14T07:56:40;24.10;99.90
51567;DHT22;37657;53.182;5.638;2022-08-14T07:59:07;24.20;99.90
51567;DHT22;37657;53.182;5.638;2022-08-14T08:01:33;24.30;99.90
51567;DHT22;37657;53.182;5.638;2022-08-14T08:04:02;24.40;99.90
51567;DHT22;37657;53.182;5.638;2022-08-14T08:06:28;24.50;99.90
51567;DHT22;37657;53.182;5.638;2022-08-14T08:08:57;24.40;99.90
51567;DHT22;37657;53.182;5.638;2022-08-14T08:11:27;24.70;99.90
51567;DHT22;37657;53.182;5.638;2022-08-14T08:13:56;24.70;99.90
51567;DHT22;37657;53.182;5.638;2022-08-14T08:16:23;24.90;99.90
51567;DHT22;37657;53.182;5.638;2022-08-14T08:18:49;25.00;99.90
51567;DHT22;37657;53.182;5.638;2022-08-14T08:21:15;25.00;99.90
51567;DHT22;37657;53.182;5.638;2022-08-14T08:23:40;25.20;99.90
51567;DHT22;37657;53.182;5.638;2022-08-14T08:26:06;25.20;99.90
51567;DHT22;37657;53.182;5.638;2022-08-14T08:28:32;25.30;99.90
51567;DHT22;37657;53.182;5.638;2022-08-14T08:31:04;25.40;99.90
51567;DHT22;37657;53.182;5.638;2022-08-14T08:33:33;25.50;99.90
51567;DHT22;37657;53.182;5.638;2022-08-14T08:36:05;25.60;99.90
51567;DHT22;37657;53.182;5.638;2022-08-14T08:38:32;25.70;99.90
51567;DHT22;37657;53.182;5.638;2022-08-14T08:40:59;25.80;99.90
51567;DHT22;37657;53.182;5.638;2022-08-14T08:43:34;26.00;99.90
51567;DHT22;37657;53.182;5.638;2022-08-14T08:46:06;26.10;99.90
51567;DHT22;37657;53.182;5.638;2022-08-14T08:48:46;26.10;99.90
51567;DHT22;37657;53.182;5.638;2022-08-14T08:51:30;26.30;99.90
51567;DHT22;37657;53.182;5.638;2022-08-14T08:54:01;26.30;99.90
51567;DHT22;37657;53.182;5.638;2022-08-14T08:56:41;26.40;99.90
51567;DHT22;37657;53.182;5.638;2022-08-14T08:59:27;26.50;99.90
51567;DHT22;37657;53.182;5.638;2022-08-14T09:02:01;26.60;99.90
51567;DHT22;37657;53.182;5.638;2022-08-14T09:04:28;26.70;99.90
51567;DHT22;37657;53.182;5.638;2022-08-14T09:06:55;26.80;99.90
51567;DHT22;37657;53.182;5.638;2022-08-14T09:09:23;26.90;99.90
51567;DHT22;37657;53.182;5.638;2022-08-14T09:11:49;27.00;99.90
51567;DHT22;37657;53.182;5.638;2022-08-14T09:14:15;27.00;99.90
51567;DHT22;37657;53.182;5.638;2022-08-14T09:16:40;27.10;99.90
51567;DHT22;37657;53.182;5.638;2022-08-14T09:19:07;27.20;99.90
51567;DHT22;37657;53.182;5.638;2022-08-14T09:21:33;27.30;99.90
51567;DHT22;37657;53.182;5.638;2022-08-14T09:24:00;27.30;99.90
51567;DHT22;37657;53.182;5.638;2022-08-14T09:26:26;27.40;99.90
51567;DHT22;37657;53.182;5.638;2022-08-14T09:28:51;27.40;99.90
51567;DHT22;37657;53.182;5.638;2022-08-14T09:31:17;27.60;99.90
51567;DHT22;37657;53.182;5.638;2022-08-14T09:33:57;27.60;99.90
51567;DHT22;37657;53.182;5.638;2022-08-14T09:47:59;28.00;99.90
51567;DHT22;37657;53.182;5.638;2022-08-14T09:50:26;28.10;99.90
51567;DHT22;37657;53.182;5.638;2022-08-14T09:52:59;28.20;99.90
51567;DHT22;37657;53.182;5.638;2022-08-14T09:55:28;28.20;99.90
51567;DHT22;37657;53.182;5.638;2022-08-14T10:03:07;28.30;99.90
51567;DHT22;37657;53.182;5.638;2022-08-14T10:05:35;28.40;99.90
51567;DHT22;37657;53.182;5.638;2022-08-14T10:08:02;28.50;99.90
51567;DHT22;37657;53.182;5.638;2022-08-14T10:10:35;28.60;99.90
51567;DHT22;37657;53.182;5.638;2022-08-14T10:13:06;28.70;99.90
51567;DHT22;37657;53.182;5.638;2022-08-14T10:15:37;28.80;99.90
51567;DHT22;37657;53.182;5.638;2022-08-14T10:18:07;28.80;99.90
51567;DHT22;37657;53.182;5.638;2022-08-14T10:20:40;28.80;99.90
51567;DHT22;37657;53.182;5.638;2022-08-14T10:23:16;28.90;99.90
51567;DHT22;37657;53.182;5.638;2022-08-14T10:25:47;28.80;99.90
51567;DHT22;37657;53.182;5.638;2022-08-14T10:28:18;28.90;99.90
51567;DHT22;37657;53.182;5.638;2022-08-14T10:30:45;28.90;99.90
51567;DHT22;37657;53.182;5.638;2022-08-14T10:33:24;28.90;99.90
51567;DHT22;37657;53.182;5.638;2022-08-14T10:35:50;29.00;99.90
51567;DHT22;37657;53.182;5.638;2022-08-14T10:38:30;29.10;99.90
51567;DHT22;37657;53.182;5.638;2022-08-14T10:41:09;29.30;99.90
51567;DHT22;37657;53.182;5.638;2022-08-14T10:43:37;29.30;99.90
51567;DHT22;37657;53.182;5.638;2022-08-14T10:46:14;29.40;99.90
51567;DHT22;37657;53.182;5.638;2022-08-14T10:48:40;29.40;99.90
51567;DHT22;37657;53.182;5.638;2022-08-14T10:51:07;29.50;99.90
51567;DHT22;37657;53.182;5.638;2022-08-14T10:53:34;29.50;99.90
51567;DHT22;37657;53.182;5.638;2022-08-14T10:56:03;29.50;99.90
51567;DHT22;37657;53.182;5.638;2022-08-14T10:58:32;29.50;99.90
51567;DHT22;37657;53.182;5.638;2022-08-14T11:00:59;29.60;99.90
51567;DHT22;37657;53.182;5.638;2022-08-14T11:03:37;29.70;99.90
51567;DHT22;37657;53.182;5.638;2022-08-14T11:06:16;29.80;99.90
51567;DHT22;37657;53.182;5.638;2022-08-14T11:08:46;29.80;99.90
51567;DHT22;37657;53.182;5.638;2022-08-14T11:11:12;29.80;99.90
51567;DHT22;37657;53.182;5.638;2022-08-14T11:13:41;29.90;99.90
51567;DHT22;37657;53.182;5.638;2022-08-14T11:16:09;30.00;99.90
51567;DHT22;37657;53.182;5.638;2022-08-14T11:18:36;30.00;99.90
51567;DHT22;37657;53.182;5.638;2022-08-14T11:21:03;29.90;99.90
51567;DHT22;37657;53.182;5.638;2022-08-14T11:23:35;30.10;99.90
51567;DHT22;37657;53.182;5.638;2022-08-14T11:26:03;30.20;99.90
51567;DHT22;37657;53.182;5.638;2022-08-14T11:28:33;30.40;99.90
51567;DHT22;37657;53.182;5.638;2022-08-14T11:30:59;30.40;99.90
51567;DHT22;37657;53.182;5.638;2022-08-14T11:33:29;30.30;99.90
51567;DHT22;37657;53.182;5.638;2022-08-14T11:36:01;30.40;99.90
51567;DHT22;37657;53.182;5.638;2022-08-14T11:38:43;30.40;99.90
51567;DHT22;37657;53.182;5.638;2022-08-14T11:41:13;30.60;99.90
51567;DHT22;37657;53.182;5.638;2022-08-14T11:43:42;30.60;99.90
51567;DHT22;37657;53.182;5.638;2022-08-14T11:46:08;30.70;99.90
51567;DHT22;37657;53.182;5.638;2022-08-14T11:48:44;30.60;99.90
51567;DHT22;37657;53.182;5.638;2022-08-14T11:51:13;30.50;99.90
51567;DHT22;37657;53.182;5.638;2022-08-14T11:53:39;30.40;99.90
51567;DHT22;37657;53.182;5.638;2022-08-14T11:56:08;30.40;99.90
51567;DHT22;37657;53.182;5.638;2022-08-14T11:58:37;30.40;99.90
51567;DHT22;37657;53.182;5.638;2022-08-14T12:01:07;30.40;99.90
51567;DHT22;37657;53.182;5.638;2022-08-14T12:03:42;30.50;99.90
51567;DHT22;37657;53.182;5.638;2022-08-14T12:08:39;30.30;99.90
51567;DHT22;37657;53.182;5.638;2022-08-14T12:11:06;30.30;99.90
51567;DHT22;37657;53.182;5.638;2022-08-14T12:13:33;30.30;99.90
51567;DHT22;37657;53.182;5.638;2022-08-14T12:16:05;30.40;99.90
51567;DHT22;37657;53.182;5.638;2022-08-14T12:18:38;30.50;99.90
51567;DHT22;37657;53.182;5.638;2022-08-14T12:21:18;30.40;99.90
51567;DHT22;37657;53.182;5.638;2022-08-14T12:24:08;30.40;99.90
51567;DHT22;37657;53.182;5.638;2022-08-14T12:26:34;30.30;99.90
51567;DHT22;37657;53.182;5.638;2022-08-14T12:29:10;30.40;99.90
51567;DHT22;37657;53.182;5.638;2022-08-14T12:31:37;30.40;99.90
51567;DHT22;37657;53.182;5.638;2022-08-14T12:34:04;30.50;99.90
51567;DHT22;37657;53.182;5.638;2022-08-14T12:36:31;30.50;99.90
51567;DHT22;37657;53.182;5.638;2022-08-14T12:38:58;30.60;99.90
51567;DHT22;37657;53.182;5.638;2022-08-14T12:41:26;30.60;99.70
51567;DHT22;37657;53.182;5.638;2022-08-14T12:43:57;30.60;99.80
51567;DHT22;37657;53.182;5.638;2022-08-14T12:46:40;30.50;99.70
51567;DHT22;37657;53.182;5.638;2022-08-14T12:49:16;30.60;99.60
51567;DHT22;37657;53.182;5.638;2022-08-14T12:51:54;30.70;99.40
51567;DHT22;37657;53.182;5.638;2022-08-14T12:54:19;30.70;99.20
51567;DHT22;37657;53.182;5.638;2022-08-14T12:56:46;30.70;99.20
51567;DHT22;37657;53.182;5.638;2022-08-14T12:59:13;30.80;99.10
51567;DHT22;37657;53.182;5.638;2022-08-14T13:01:39;30.90;98.90
51567;DHT22;37657;53.182;5.638;2022-08-14T13:04:06;31.00;98.80
51567;DHT22;37657;53.182;5.638;2022-08-14T13:06:37;31.00;98.60
51567;DHT22;37657;53.182;5.638;2022-08-14T13:09:04;31.00;98.30
51567;DHT22;37657;53.182;5.638;2022-08-14T13:11:42;31.10;98.30
51567;DHT22;37657;53.182;5.638;2022-08-14T13:14:13;31.20;98.30
51567;DHT22;37657;53.182;5.638;2022-08-14T13:16:41;31.20;98.40
51567;DHT22;37657;53.182;5.638;2022-08-14T13:19:10;31.20;98.50
51567;DHT22;37657;53.182;5.638;2022-08-14T13:21:38;31.10;98.50
51567;DHT22;37657;53.182;5.638;2022-08-14T13:24:04;31.10;98.50
51567;DHT22;37657;53.182;5.638;2022-08-14T13:26:31;31.00;98.60
51567;DHT22;37657;53.182;5.638;2022-08-14T13:29:01;31.00;98.40
51567;DHT22;37657;53.182;5.638;2022-08-14T13:31:29;31.00;98.40
51567;DHT22;37657;53.182;5.638;2022-08-14T13:33:57;31.00;98.10
51567;DHT22;37657;53.182;5.638;2022-08-14T13:36:25;31.00;98.20
51567;DHT22;37657;53.182;5.638;2022-08-14T13:38:52;31.00;98.30
51567;DHT22;37657;53.182;5.638;2022-08-14T13:41:18;30.80;98.40
51567;DHT22;37657;53.182;5.638;2022-08-14T13:43:49;30.70;98.30
51567;DHT22;37657;53.182;5.638;2022-08-14T13:46:18;30.90;98.40
51567;DHT22;37657;53.182;5.638;2022-08-14T13:48:47;31.00;98.30
51567;DHT22;37657;53.182;5.638;2022-08-14T13:51:16;31.10;98.30
51567;DHT22;37657;53.182;5.638;2022-08-14T13:53:48;31.10;98.20
51567;DHT22;37657;53.182;5.638;2022-08-14T13:56:15;31.20;98.20
51567;DHT22;37657;53.182;5.638;2022-08-14T13:58:44;31.00;98.10
51567;DHT22;37657;53.182;5.638;2022-08-14T14:01:16;31.00;98.30
51567;DHT22;37657;53.182;5.638;2022-08-14T14:03:44;30.90;98.10
51567;DHT22;37657;53.182;5.638;2022-08-14T14:06:12;30.80;98.00
51567;DHT22;37657;53.182;5.638;2022-08-14T14:08:44;30.70;98.00
51567;DHT22;37657;53.182;5.638;2022-08-14T14:11:12;30.70;98.10
51567;DHT22;37657;53.182;5.638;2022-08-14T14:13:37;30.70;98.10
51567;DHT22;37657;53.182;5.638;2022-08-14T14:16:08;30.60;98.20
51567;DHT22;37657;53.182;5.638;2022-08-14T14:18:34;30.60;98.40
51567;DHT22;37657;53.182;5.638;2022-08-14T14:21:01;30.50;98.10
51567;DHT22;37657;53.182;5.638;2022-08-14T14:23:27;30.50;98.00
51567;DHT22;37657;53.182;5.638;2022-08-14T14:25:53;30.40;98.00
51567;DHT22;37657;53.182;5.638;2022-08-14T14:28:20;30.40;98.10
51567;DHT22;37657;53.182;5.638;2022-08-14T14:30:49;30.40;98.10
51567;DHT22;37657;53.182;5.638;2022-08-14T14:33:17;30.60;98.30
51567;DHT22;37657;53.182;5.638;2022-08-14T14:35:44;30.70;98.20
51567;DHT22;37657;53.182;5.638;2022-08-14T14:38:15;30.80;98.10
51567;DHT22;37657;53.182;5.638;2022-08-14T14:40:43;30.80;97.90
51567;DHT22;37657;53.182;5.638;2022-08-14T14:43:11;30.80;97.80
51567;DHT22;37657;53.182;5.638;2022-08-14T14:45:39;31.00;97.80
51567;DHT22;37657;53.182;5.638;2022-08-14T14:48:08;30.90;97.60
51567;DHT22;37657;53.182;5.638;2022-08-14T14:50:34;31.00;97.60
51567;DHT22;37657;53.182;5.638;2022-08-14T14:53:03;31.00;97.90
51567;DHT22;37657;53.182;5.638;2022-08-14T14:55:30;31.10;97.90
51567;DHT22;37657;53.182;5.638;2022-08-14T14:57:57;31.10;97.60
51567;DHT22;37657;53.182;5.638;2022-08-14T15:00:23;31.10;97.40
51567;DHT22;37657;53.182;5.638;2022-08-14T15:02:51;31.20;97.50
51567;DHT22;37657;53.182;5.638;2022-08-14T15:05:18;31.10;97.30
51567;DHT22;37657;53.182;5.638;2022-08-14T15:07:45;31.10;97.50
51567;DHT22;37657;53.182;5.638;2022-08-14T15:10:13;30.90;97.50
51567;DHT22;37657;53.182;5.638;2022-08-14T15:12:39;31.00;97.50
51567;DHT22;37657;53.182;5.638;2022-08-14T15:15:05;31.00;97.20
51567;DHT22;37657;53.182;5.638;2022-08-14T15:17:31;31.00;97.10
51567;DHT22;37657;53.182;5.638;2022-08-14T15:20:09;30.90;97.10
51567;DHT22;37657;53.182;5.638;2022-08-14T15:22:36;30.80;96.80
51567;DHT22;37657;53.182;5.638;2022-08-14T15:25:03;30.70;96.80
51567;DHT22;37657;53.182;5.638;2022-08-14T15:27:29;30.80;97.00
51567;DHT22;37657;53.182;5.638;2022-08-14T15:29:56;30.70;96.70
51567;DHT22;37657;53.182;5.638;2022-08-14T15:32:22;30.70;96.60
51567;DHT22;37657;53.182;5.638;2022-08-14T15:34:48;30.70;96.70
51567;DHT22;37657;53.182;5.638;2022-08-14T15:37:13;30.70;96.90
51567;DHT22;37657;53.182;5.638;2022-08-14T15:39:39;30.60;97.10
51567;DHT22;37657;53.182;5.638;2022-08-14T15:42:06;30.60;97.20
51567;DHT22;37657;53.182;5.638;2022-08-14T15:44:32;30.60;97.30
51567;DHT22;37657;53.182;5.638;2022-08-14T15:46:58;30.60;97.10
51567;DHT22;37657;53.182;5.638;2022-08-14T15:49:25;30.60;96.80
51567;DHT22;37657;53.182;5.638;2022-08-14T15:51:55;30.60;97.00
51567;DHT22;37657;53.182;5.638;2022-08-14T15:54:25;30.60;97.30
51567;DHT22;37657;53.182;5.638;2022-08-14T15:57:09;30.50;97.30
51567;DHT22;37657;53.182;5.638;2022-08-14T15:59:36;30.50;97.40
51567;DHT22;37657;53.182;5.638;2022-08-14T16:02:21;30.50;97.40